Dodola Airport


Codes: HADO/
Name: Dodola Airport
City: Dodola
Country: Ethiopia
Elevation: 8234 ft.

Photos at Dodola Airport


   Photos courtesy of SpottingLog. You can add your own sightings and photos by signing up for a free trial today.



No photos found.

Weather at Dodola Airport


Time (UTC)DescriptionTempratureWindCloud coverageVisibilityPressureHumidity
21-Jun-2024 12:00Light Rain19°C9 mph, SW44%10000m1013hPa62%
21-Jun-2024 15:00Moderate Rain18°C7 mph, SW54%10000m1014hPa69%
21-Jun-2024 18:00Light Rain15°C7 mph, S67%10000m1017hPa81%
21-Jun-2024 21:00Light Rain12°C4 mph, SW36%10000m1019hPa94%
22-Jun-2024 00:00Light Rain11°C4 mph, SW52%10000m1018hPa94%
22-Jun-2024 03:00Light Rain11°C2 mph, SW94%10000m1018hPa92%
22-Jun-2024 06:00Overcast Clouds15°C7 mph, SW94%10000m1019hPa79%
22-Jun-2024 09:00Light Rain18°C7 mph, W91%10000m1016hPa66%
22-Jun-2024 12:00Moderate Rain16°C9 mph, SW94%6644m1014hPa80%
22-Jun-2024 15:00Moderate Rain13°C4 mph, S100%3431m1017hPa94%
22-Jun-2024 18:00Moderate Rain12°C2 mph, SE100%10000m1019hPa91%
22-Jun-2024 21:00Overcast Clouds12°C4 mph, SW100%10000m1018hPa93%
23-Jun-2024 00:00Overcast Clouds11°C4 mph, SW100%8043m1017hPa94%
23-Jun-2024 03:00Overcast Clouds10°C4 mph, SW100%10000m1019hPa93%
23-Jun-2024 06:00Overcast Clouds15°C7 mph, SW99%10000m1019hPa77%
23-Jun-2024 09:00Light Rain18°C9 mph, SW100%10000m1016hPa65%
23-Jun-2024 12:00Light Rain18°C7 mph, SW99%10000m1014hPa64%
23-Jun-2024 15:00Light Rain14°C7 mph, SW100%7417m1016hPa84%
23-Jun-2024 18:00Moderate Rain13°C7 mph, SW100%10000m1019hPa93%
23-Jun-2024 21:00Overcast Clouds12°C2 mph, SW100%10000m1019hPa92%
24-Jun-2024 00:00Overcast Clouds10°C7 mph, SW99%10000m1018hPa94%
24-Jun-2024 03:00Overcast Clouds10°C4 mph, SW100%10000m1020hPa93%
24-Jun-2024 06:00Overcast Clouds14°C4 mph, SW100%10000m1020hPa79%
24-Jun-2024 09:00Light Rain17°C7 mph, W100%10000m1017hPa66%
24-Jun-2024 12:00Light Rain18°C7 mph, SW99%10000m1015hPa68%
24-Jun-2024 15:00Moderate Rain15°C7 mph, W94%10000m1016hPa84%
24-Jun-2024 18:00Light Rain13°C4 mph, W96%10000m1018hPa88%
24-Jun-2024 21:00Overcast Clouds11°C4 mph, SW95%10000m1018hPa93%
25-Jun-2024 00:00Overcast Clouds12°C4 mph, SW97%10000m1017hPa94%
25-Jun-2024 03:00Overcast Clouds10°C4 mph, SW99%10000m1019hPa95%
25-Jun-2024 06:00Overcast Clouds15°C7 mph, W100%10000m1019hPa82%
25-Jun-2024 09:00Light Rain18°C9 mph, W93%9160m1016hPa69%
25-Jun-2024 12:00Moderate Rain16°C11 mph, NW96%8046m1015hPa80%
25-Jun-2024 15:00Moderate Rain13°C7 mph, SW100%10000m1016hPa87%
25-Jun-2024 18:00Overcast Clouds11°C4 mph, SW99%10000m1018hPa91%
25-Jun-2024 21:00Overcast Clouds11°C4 mph, SW100%10000m1018hPa93%
26-Jun-2024 00:00Overcast Clouds11°C4 mph, SW100%10000m1017hPa95%
26-Jun-2024 03:00Overcast Clouds11°C2 mph, SW100%10000m1018hPa92%
26-Jun-2024 06:00Overcast Clouds15°C4 mph, W100%10000m1018hPa79%
26-Jun-2024 09:00Light Rain17°C9 mph, NW100%10000m1015hPa71%